mdsk.net
当前位置:首页 >> python 正则表达式,怎样匹配以某个字符串开头,以... >>

python 正则表达式,怎样匹配以某个字符串开头,以...

String regex = "^A*C*B$"; Pattern p = Pattern.compile(regex); java.util.regex.Matcher m = p.matcher("这里是你要匹配的字符串"); while (m.find()) { System.out.println(m.group()); }

匹配以某个字符串开头,以某个字符串结尾的情况的正则表达式:^abc.*?qwe$ Python正则表达式的几种匹配用法: 1.测试正则表达式是否匹配字符串的全部或部分 regex=ur"" #正则表达式if re.search(regex, subject):do_something()else:do_anotherth...

您好!可以这样写 正则表达式:^abc(.*?)qwe$ 取第一捕获组的数据就行了.

import rea = "asdf[abc123]我们"g = re.search("\[.*\]", a)if g: print(g.group())else: print("") 看看这个是不是你想要的效果,最后打印的是[abc123],如果你[]不想要,可以在匹配完成后手动去掉字符串的第一个和最后一个字符

rex = r'[^abcde]*'re.match(rex, 'this is a string')返回值是None则不匹配,反之匹配 当然先compile一下也很好。 拓展: 1、Python(英语发音:/ˈpaɪθən/), 是一种面向对象、解释型计算机程序设计语言,由Guido van Rossum于1989...

这样 pattern='.+\.(css|img|js)$' m=re.match(p,url) if m!=None: 符合 else: 不符合

import reA = '''METAR ZBAA 230330Z 13002MPS 090V170 CAVOK 32/22 Q1006 NOSIG= METAR ZBAA 230300Z 13003MPS 090V160 CAVOK 32/23 Q1007 NOSIG= SPECI ZBAA 230330Z 13002MPS 090V170 CAVOK 32/22 Q1006 NOSIG= '''reg = re.findall(r'(?:MET...

首先,「匹配除2012这个字符串以外的任意字符?」语义不明,你是想将其从原字符串中删除还是要匹配2012以外的年份? 姑且认为你的意思是后者,也即在一个特定模式里排除某些匹配的实例。 方法一、先预处理,将要匹配的字符串里的2012替换成不可...

使用re模块的search函数,能过正则表达式查找,代码如下: import rereg=re.compile(r"(?

1. 首先 p.search(s) 只会找第一个匹配的字符串 2. 其次 p.findall(s) 会记录匹配的组,而(19|20) 代表一个组,应该改成(?:19|20) 以下代码可以满足你的要求: # -*- coding: utf-8 -*- from __future__ import print_function, division import...

网站首页 | 网站地图
All rights reserved Powered by www.mdsk.net
copyright ©right 2010-2021。
内容来自网络,如有侵犯请联系客服。zhit325@qq.com